createdAt,value
2018-02-01T00:01:23.519Z,5.28
2018-02-01T00:03:52.444Z,4.53
2018-02-01T00:06:20.556Z,5.03
2018-02-01T00:08:48.694Z,4.00
2018-02-01T00:11:16.823Z,3.37
2018-02-01T00:13:45.716Z,3.45
2018-02-01T00:16:13.842Z,4.70
2018-02-01T00:18:41.961Z,3.78
2018-02-01T00:21:10.157Z,4.37
2018-02-01T00:23:39.012Z,4.03
2018-02-01T00:26:07.909Z,3.08
2018-02-01T00:28:36.819Z,3.83
2018-02-01T00:31:05.691Z,3.40
2018-02-01T00:33:33.799Z,3.75
2018-02-01T00:36:01.933Z,3.70
2018-02-01T00:38:30.060Z,3.60
2018-02-01T00:40:58.176Z,3.62
2018-02-01T00:43:27.104Z,4.28
2018-02-01T00:45:55.204Z,3.83
2018-02-01T00:48:23.393Z,6.82
2018-02-01T00:50:51.609Z,2.72
2018-02-01T00:53:20.499Z,2.85
2018-02-01T00:55:48.641Z,4.95
2018-02-01T00:58:17.521Z,2.67
2018-02-01T01:00:46.446Z,2.33
2018-02-01T01:03:14.556Z,2.67
2018-02-01T01:05:42.714Z,4.53
2018-02-01T01:08:10.842Z,2.60
2018-02-01T01:10:39.777Z,2.35
2018-02-01T01:13:08.689Z,3.05
2018-02-01T01:15:36.830Z,2.55
2018-02-01T01:18:04.965Z,2.03
2018-02-01T01:20:33.850Z,1.37
2018-02-01T01:23:02.743Z,2.87
2018-02-01T01:25:31.633Z,1.40
2018-02-01T01:28:00.603Z,2.08
2018-02-01T01:30:28.728Z,1.42
2018-02-01T01:32:57.586Z,2.08
2018-02-01T01:35:26.522Z,1.77
2018-02-01T01:37:54.638Z,1.13
2018-02-01T01:40:22.778Z,1.87
2018-02-01T01:42:50.885Z,3.03
2018-02-01T01:45:19.011Z,3.45
2018-02-01T01:47:47.128Z,2.40
2018-02-01T01:50:16.030Z,1.27
2018-02-01T01:52:44.909Z,1.48
2018-02-01T01:55:13.836Z,2.47
2018-02-01T01:57:41.938Z,1.65
2018-02-01T02:00:10.046Z,2.83
2018-02-01T02:02:39.218Z,1.15
2018-02-01T02:05:07.325Z,2.10
2018-02-01T02:07:35.521Z,1.57
2018-02-01T02:10:03.572Z,1.40
2018-02-01T02:12:31.695Z,1.40
2018-02-01T02:14:59.850Z,1.33
2018-02-01T02:17:27.938Z,1.30
2018-02-01T02:19:56.071Z,2.78
2018-02-01T02:22:24.199Z,1.97
2018-02-01T02:24:52.323Z,1.42
2018-02-01T02:27:20.438Z,2.65
2018-02-01T02:29:48.561Z,1.50
2018-02-01T02:32:23.602Z,1.85
2018-02-01T02:34:51.743Z,2.70
2018-02-01T02:37:20.643Z,2.73
2018-02-01T02:39:49.504Z,2.08
2018-02-01T02:42:17.639Z,1.45
2018-02-01T02:44:45.749Z,2.05
2018-02-01T02:47:13.946Z,1.40
2018-02-01T02:49:42.095Z,2.30
2018-02-01T02:52:10.209Z,1.58
2018-02-01T02:54:38.318Z,1.60
2018-02-01T02:57:06.441Z,2.67
2018-02-01T02:59:34.571Z,2.42
2018-02-01T03:02:02.774Z,1.80
2018-02-01T03:04:31.670Z,2.30
2018-02-01T03:06:59.788Z,1.43
2018-02-01T03:09:27.921Z,1.10
2018-02-01T03:11:56.046Z,1.73
2018-02-01T03:14:24.175Z,2.00
2018-02-01T03:16:52.321Z,1.30
2018-02-01T03:19:21.227Z,1.60
2018-02-01T03:21:49.351Z,0.80
2018-02-01T03:24:17.477Z,1.12
2018-02-01T03:26:45.600Z,2.00
2018-02-01T03:29:13.755Z,1.00
2018-02-01T03:31:41.877Z,1.05
2018-02-01T03:34:10.746Z,0.60
2018-02-01T03:36:38.871Z,0.90
2018-02-01T03:39:06.986Z,1.05
2018-02-01T03:41:35.122Z,1.00
2018-02-01T03:44:03.998Z,0.40
2018-02-01T03:46:32.131Z,0.75
2018-02-01T03:49:01.024Z,0.60
2018-02-01T03:51:29.927Z,0.95
2018-02-01T03:53:58.804Z,1.20
2018-02-01T03:56:27.716Z,0.50
2018-02-01T03:58:55.830Z,0.50
2018-02-01T04:01:24.703Z,0.50
2018-02-01T04:03:52.858Z,0.40
2018-02-01T04:06:20.962Z,0.85
2018-02-01T04:08:49.098Z,0.65
2018-02-01T04:11:17.208Z,0.73
2018-02-01T04:13:45.323Z,0.50
2018-02-01T04:16:14.953Z,0.60
2018-02-01T04:18:43.067Z,0.40
2018-02-01T04:21:11.201Z,0.50
2018-02-01T04:23:39.309Z,0.50
2018-02-01T04:26:07.447Z,1.20
2018-02-01T04:28:35.565Z,0.40
2018-02-01T04:31:03.679Z,0.40
2018-02-01T04:33:31.792Z,0.40
2018-02-01T04:35:59.918Z,0.98
2018-02-01T04:38:28.041Z,0.63
2018-02-01T04:40:56.167Z,0.50
2018-02-01T04:43:24.302Z,0.40
2018-02-01T04:45:52.421Z,0.73
2018-02-01T04:48:20.560Z,0.50
2018-02-01T04:50:49.482Z,0.40
2018-02-01T04:53:17.607Z,0.40
2018-02-01T04:55:45.730Z,0.50
2018-02-01T04:58:13.847Z,0.40
2018-02-01T05:00:41.987Z,1.75
2018-02-01T05:03:10.103Z,0.50
2018-02-01T05:05:38.977Z,0.55
2018-02-01T05:08:07.100Z,0.50
2018-02-01T05:10:35.218Z,0.40
2018-02-01T05:13:03.336Z,0.40
2018-02-01T05:15:31.472Z,0.40
2018-02-01T05:17:59.594Z,2.90
2018-02-01T05:20:27.711Z,0.50
2018-02-01T05:22:55.845Z,0.40
2018-02-01T05:25:23.974Z,0.40
2018-02-01T05:27:52.867Z,0.50
2018-02-01T05:30:21.747Z,0.50
2018-02-01T05:32:50.626Z,0.50
2018-02-01T05:35:18.762Z,0.40
2018-02-01T05:37:46.878Z,0.50
2018-02-01T05:40:15.756Z,0.60
2018-02-01T05:42:43.897Z,0.40
2018-02-01T05:45:12.016Z,1.55
2018-02-01T05:47:40.155Z,0.80
2018-02-01T05:50:08.265Z,0.50
2018-02-01T05:52:37.169Z,0.40
2018-02-01T05:55:05.321Z,0.80
2018-02-01T05:57:34.204Z,0.50
2018-02-01T06:00:02.330Z,0.65
2018-02-01T06:02:30.433Z,0.40
2018-02-01T06:04:58.560Z,0.50
2018-02-01T06:07:26.672Z,0.67
2018-02-01T06:09:54.866Z,0.50
2018-02-01T06:12:22.985Z,0.50
2018-02-01T06:14:51.120Z,1.40
2018-02-01T06:17:20.000Z,0.60
2018-02-01T06:19:48.159Z,0.50
2018-02-01T06:22:16.249Z,1.43
2018-02-01T06:24:45.126Z,0.60
2018-02-01T06:27:13.260Z,0.80
2018-02-01T06:29:42.146Z,0.50
2018-02-01T06:32:10.291Z,0.65
2018-02-01T06:34:38.395Z,0.60
2018-02-01T06:37:06.518Z,0.50
2018-02-01T06:39:35.405Z,0.77
2018-02-01T06:42:03.531Z,0.90
2018-02-01T06:44:31.667Z,0.60
2018-02-01T06:46:59.791Z,2.17
2018-02-01T06:49:27.933Z,0.73
2018-02-01T06:51:56.062Z,0.67
2018-02-01T06:54:24.929Z,2.15
2018-02-01T06:56:53.061Z,0.60
2018-02-01T06:59:21.174Z,1.85
2018-02-01T07:01:50.354Z,1.43
2018-02-01T07:04:18.476Z,1.20
2018-02-01T07:06:47.406Z,0.93
2018-02-01T07:09:15.522Z,0.50
2018-02-01T07:11:44.394Z,0.50
2018-02-01T07:14:12.551Z,0.68
2018-02-01T07:16:40.649Z,2.00
2018-02-01T07:19:09.271Z,1.70
2018-02-01T07:21:37.380Z,0.80
2018-02-01T07:24:05.528Z,1.20
2018-02-01T07:26:33.638Z,1.30
2018-02-01T07:29:01.765Z,1.00
2018-02-01T07:31:29.890Z,0.62
2018-02-01T07:33:58.011Z,0.50
2018-02-01T07:36:26.183Z,1.30
2018-02-01T07:38:54.302Z,0.70
2018-02-01T07:41:22.441Z,0.85
2018-02-01T07:43:50.550Z,0.90
2018-02-01T07:49:21.779Z,0.90
2018-02-01T07:51:49.921Z,1.45
2018-02-01T07:54:18.782Z,1.40
2018-02-01T07:56:47.665Z,2.78
2018-02-01T07:59:15.807Z,3.75
2018-02-01T08:01:43.916Z,1.73
2018-02-01T08:04:12.818Z,2.05
2018-02-01T08:06:41.705Z,2.33
2018-02-01T08:09:10.592Z,1.55
2018-02-01T08:11:39.488Z,1.30
2018-02-01T08:14:08.373Z,5.47
2018-02-01T08:16:37.278Z,2.35
2018-02-01T08:19:06.159Z,5.45
2018-02-01T08:21:35.062Z,1.12
2018-02-01T08:24:03.216Z,1.87
2018-02-01T08:26:31.328Z,2.95
2018-02-01T08:28:59.764Z,1.35
2018-02-01T08:31:28.657Z,2.97
2018-02-01T08:33:57.531Z,0.90
2018-02-01T08:36:25.668Z,1.20
2018-02-01T08:38:53.819Z,0.90
2018-02-01T08:41:21.937Z,1.05
2018-02-01T08:43:50.063Z,0.57
2018-02-01T08:46:19.568Z,1.67
2018-02-01T08:48:47.966Z,1.85
2018-02-01T08:51:16.072Z,1.00
2018-02-01T08:53:44.202Z,1.23
2018-02-01T08:56:13.190Z,0.50
2018-02-01T08:58:41.318Z,1.10
2018-02-01T09:01:10.227Z,0.70
2018-02-01T09:03:38.350Z,2.25
2018-02-01T09:06:06.469Z,0.85
2018-02-01T09:08:34.580Z,0.60
2018-02-01T09:11:02.731Z,0.70
2018-02-01T09:13:30.835Z,0.70
2018-02-01T09:15:58.992Z,1.20
2018-02-01T09:18:27.121Z,0.50
2018-02-01T09:20:56.004Z,0.50
2018-02-01T09:23:24.936Z,0.60
2018-02-01T09:25:53.052Z,1.15
2018-02-01T09:28:21.213Z,1.02
2018-02-01T09:30:49.331Z,1.48
2018-02-01T09:33:17.476Z,1.20
2018-02-01T09:35:46.598Z,0.50
2018-02-01T09:38:15.480Z,0.70
2018-02-01T09:40:43.641Z,0.57
2018-02-01T09:43:11.755Z,0.98
2018-02-01T09:45:39.883Z,1.75
2018-02-01T09:48:08.793Z,1.20
2018-02-01T09:50:36.947Z,1.55
2018-02-01T09:53:05.829Z,0.70
2018-02-01T09:55:34.747Z,1.00
2018-02-01T09:58:02.862Z,0.75
2018-02-01T10:00:30.995Z,0.68
2018-02-01T10:02:59.112Z,1.40
2018-02-01T10:05:27.256Z,0.80
2018-02-01T10:07:55.385Z,1.07
2018-02-01T10:10:24.268Z,0.65
2018-02-01T10:12:53.169Z,0.60
2018-02-01T10:15:22.056Z,0.77
2018-02-01T10:17:50.971Z,0.60
2018-02-01T10:20:19.833Z,0.75
2018-02-01T10:22:48.700Z,0.80
2018-02-01T10:25:16.841Z,0.70
2018-02-01T10:27:44.955Z,0.80
2018-02-01T10:30:13.069Z,0.70
2018-02-01T10:32:41.179Z,1.52
2018-02-01T10:35:09.330Z,0.50
2018-02-01T10:37:37.436Z,0.63
2018-02-01T10:40:05.555Z,0.70
2018-02-01T10:42:33.675Z,1.85
2018-02-01T10:45:01.802Z,1.05
2018-02-01T10:47:29.917Z,0.80
2018-02-01T10:49:58.038Z,1.50
2018-02-01T10:52:26.187Z,0.82
2018-02-01T10:54:55.054Z,0.70
2018-02-01T10:57:23.180Z,0.70
2018-02-01T10:59:51.306Z,2.65
2018-02-01T11:02:19.418Z,1.30
2018-02-01T11:04:47.542Z,1.60
2018-02-01T11:07:15.666Z,1.13
2018-02-01T11:09:43.818Z,2.58
2018-02-01T11:12:11.951Z,1.55
2018-02-01T11:14:40.061Z,1.77
2018-02-01T11:17:08.951Z,2.65
2018-02-01T11:19:37.837Z,1.48
2018-02-01T11:22:06.730Z,1.57
2018-02-01T11:24:35.616Z,4.82
2018-02-01T11:27:04.519Z,3.83
2018-02-01T11:29:32.641Z,1.77
2018-02-01T11:32:00.776Z,1.05
2018-02-01T11:34:28.905Z,1.80
2018-02-01T11:36:57.012Z,1.30
2018-02-01T11:39:25.148Z,1.67
2018-02-01T11:41:53.271Z,2.70
2018-02-01T11:44:21.401Z,1.25
2018-02-01T11:46:50.295Z,1.30
2018-02-01T11:49:19.184Z,1.37
2018-02-01T11:51:48.086Z,1.42
2018-02-01T11:54:16.222Z,2.20
2018-02-01T11:56:44.335Z,2.08
2018-02-01T11:59:12.452Z,2.05
2018-02-01T12:01:40.586Z,2.23
2018-02-01T12:04:08.701Z,1.48
2018-02-01T12:06:36.853Z,3.90
2018-02-01T12:09:04.982Z,1.92
2018-02-01T12:11:33.863Z,0.70
2018-02-01T12:14:02.770Z,1.02
2018-02-01T12:16:31.650Z,2.33
2018-02-01T12:19:00.559Z,1.92
2018-02-01T12:21:28.749Z,2.35
2018-02-01T12:23:56.855Z,1.65
2018-02-01T12:26:24.972Z,1.08
2018-02-01T12:28:53.117Z,1.08
2018-02-01T12:31:21.243Z,1.15
2018-02-01T12:33:49.375Z,0.88
2018-02-01T12:36:18.258Z,2.50
2018-02-01T12:38:47.138Z,0.88
2018-02-01T12:41:15.273Z,2.35
2018-02-01T12:46:16.906Z,1.25
2018-02-01T12:48:45.786Z,1.27
2018-02-01T12:51:14.697Z,1.85
2018-02-01T12:53:43.570Z,0.90
2018-02-01T12:56:12.450Z,4.80
2018-02-01T12:58:41.337Z,2.60
2018-02-01T13:01:10.211Z,0.87
2018-02-01T13:03:38.362Z,1.52
2018-02-01T13:06:06.504Z,1.50
2018-02-01T13:08:35.382Z,3.17
2018-02-01T13:11:03.508Z,1.70
2018-02-01T13:13:31.651Z,2.05
2018-02-01T13:15:59.780Z,1.58
2018-02-01T13:18:27.901Z,1.60
2018-02-01T13:20:56.036Z,1.58
2018-02-01T13:23:24.942Z,3.53
2018-02-01T13:25:53.086Z,1.90
2018-02-01T13:28:21.206Z,2.83
2018-02-01T13:30:49.311Z,2.37
2018-02-01T13:33:17.448Z,2.17
2018-02-01T13:35:45.657Z,0.95
2018-02-01T13:38:13.799Z,3.22
2018-02-01T13:40:41.906Z,2.08
2018-02-01T13:43:10.042Z,0.98
2018-02-01T13:45:38.169Z,2.08
2018-02-01T13:48:07.079Z,0.98
2018-02-01T13:50:35.400Z,3.33
2018-02-01T13:53:03.941Z,1.77
2018-02-01T13:55:32.085Z,1.02
2018-02-01T13:58:00.973Z,1.77
2018-02-01T14:00:29.418Z,1.65
2018-02-01T14:02:57.539Z,2.55
2018-02-01T14:05:26.412Z,2.45
2018-02-01T14:07:54.986Z,1.20
2018-02-01T14:10:23.138Z,1.15
2018-02-01T14:12:51.250Z,1.52
2018-02-01T14:15:20.127Z,1.73
2018-02-01T14:17:49.018Z,1.77
2018-02-01T14:20:17.910Z,1.23
2018-02-01T14:22:46.803Z,1.40
2018-02-01T14:25:15.691Z,3.85
2018-02-01T14:27:44.632Z,1.25
2018-02-01T14:30:12.741Z,2.28
2018-02-01T14:32:41.766Z,3.03
2018-02-01T14:35:09.878Z,3.00
2018-02-01T14:37:38.005Z,2.30
2018-02-01T14:40:06.170Z,4.43
2018-02-01T14:42:35.058Z,4.35
2018-02-01T14:45:03.954Z,3.85
2018-02-01T14:47:32.086Z,8.75
2018-02-01T14:50:00.209Z,2.12
2018-02-01T14:52:28.348Z,3.83
2018-02-01T14:54:57.254Z,1.75
2018-02-01T14:57:26.143Z,1.60
2018-02-01T14:59:55.048Z,4.35
2018-02-01T15:02:23.259Z,1.80
2018-02-01T15:04:51.377Z,2.15
2018-02-01T15:07:20.296Z,3.57
2018-02-01T15:09:48.448Z,6.00
2018-02-01T15:12:17.315Z,2.37
2018-02-01T15:14:45.471Z,3.10
2018-02-01T15:17:13.580Z,2.40
2018-02-01T15:19:42.508Z,2.28
2018-02-01T15:22:10.644Z,6.80
2018-02-01T15:24:39.534Z,2.40
2018-02-01T15:27:07.708Z,1.70
2018-02-01T15:29:36.600Z,2.00
2018-02-01T15:32:04.738Z,3.00
2018-02-01T15:34:32.886Z,3.40
2018-02-01T15:37:01.017Z,1.93
2018-02-01T15:39:29.934Z,2.20
2018-02-01T15:41:58.080Z,3.92
2018-02-01T15:44:26.207Z,2.00
2018-02-01T15:46:54.340Z,2.25
2018-02-01T15:49:22.462Z,2.60
2018-02-01T15:51:50.585Z,2.23
2018-02-01T15:54:18.728Z,3.50
2018-02-01T15:56:46.861Z,3.30
2018-02-01T15:59:14.970Z,3.80
2018-02-01T16:01:43.871Z,3.87
2018-02-01T16:04:12.767Z,4.78
2018-02-01T16:06:41.676Z,5.05
2018-02-01T16:09:09.794Z,3.90
2018-02-01T16:11:37.939Z,4.12
2018-02-01T16:14:06.070Z,6.25
2018-02-01T16:16:34.951Z,3.33
2018-02-01T16:19:03.851Z,3.28
2018-02-01T16:21:31.973Z,3.75
2018-02-01T16:24:00.115Z,3.67
2018-02-01T16:26:28.219Z,3.50
2018-02-01T16:28:56.378Z,3.65
2018-02-01T16:31:24.498Z,3.17
2018-02-01T16:33:53.385Z,3.25
2018-02-01T16:36:21.541Z,3.25
2018-02-01T16:38:49.655Z,5.82
2018-02-01T16:41:17.797Z,5.18
2018-02-01T16:43:45.927Z,4.87
2018-02-01T16:46:14.069Z,5.62
2018-02-01T16:48:42.256Z,6.70
2018-02-01T16:51:10.355Z,4.80
2018-02-01T16:53:38.481Z,4.03
2018-02-01T16:56:06.620Z,5.87
2018-02-01T16:58:34.756Z,3.22
2018-02-01T17:01:02.899Z,3.13
2018-02-01T17:03:31.779Z,2.65
2018-02-01T17:06:00.667Z,3.55
2018-02-01T17:08:29.556Z,5.57
2018-02-01T17:10:58.448Z,3.10
2018-02-01T17:13:27.360Z,4.55
2018-02-01T17:15:55.473Z,3.95
2018-02-01T17:18:23.666Z,3.50
2018-02-01T17:20:52.563Z,2.30
2018-02-01T17:23:21.452Z,2.77
2018-02-01T17:25:50.351Z,2.20
2018-02-01T17:28:19.243Z,1.62
2018-02-01T17:30:47.386Z,5.55
2018-02-01T17:33:15.506Z,3.78
2018-02-01T17:35:43.640Z,4.53
2018-02-01T17:38:11.763Z,6.90
2018-02-01T17:40:39.894Z,4.87
2018-02-01T17:43:08.789Z,5.87
2018-02-01T17:45:37.715Z,7.25
2018-02-01T17:48:05.817Z,2.90
2018-02-01T17:50:33.931Z,3.50
2018-02-01T17:53:02.090Z,3.77
2018-02-01T17:55:30.254Z,4.30
2018-02-01T17:57:59.180Z,3.65
2018-02-01T18:00:27.398Z,3.47
2018-02-01T18:02:55.507Z,6.25
2018-02-01T18:05:24.401Z,7.57
2018-02-01T18:07:53.289Z,5.63
2018-02-01T18:10:22.281Z,6.05
2018-02-01T18:12:51.166Z,3.70
2018-02-01T18:15:20.048Z,3.33
2018-02-01T18:17:48.976Z,4.97
2018-02-01T18:20:17.116Z,5.68
2018-02-01T18:22:46.019Z,10.05
2018-02-01T18:25:14.176Z,11.32
2018-02-01T18:27:43.107Z,4.07
2018-02-01T18:30:11.280Z,4.30
2018-02-01T18:32:39.447Z,8.95
2018-02-01T18:35:07.601Z,4.07
2018-02-01T18:37:36.504Z,3.70
2018-02-01T18:40:04.648Z,8.25
2018-02-01T18:42:32.766Z,5.40
2018-02-01T18:45:00.896Z,6.10
2018-02-01T18:47:29.812Z,8.07
2018-02-01T18:49:57.958Z,6.65
2018-02-01T18:52:26.846Z,7.10
2018-02-01T18:54:55.748Z,9.60
2018-02-01T18:57:23.939Z,8.85
2018-02-01T18:59:52.014Z,6.25
2018-02-01T19:02:20.148Z,4.82
2018-02-01T19:04:48.309Z,4.22
2018-02-01T19:07:16.504Z,4.40
2018-02-01T19:09:44.646Z,4.25
2018-02-01T19:12:12.859Z,8.80
2018-02-01T19:14:41.797Z,6.53
2018-02-01T19:17:09.916Z,7.05
2018-02-01T19:19:38.948Z,4.00
2018-02-01T19:22:07.115Z,2.67
2018-02-01T19:24:35.260Z,2.40
2018-02-01T19:27:04.167Z,2.75
2018-02-01T19:29:32.378Z,6.20
2018-02-01T19:32:00.524Z,3.37
2018-02-01T19:34:28.739Z,4.25
2018-02-01T19:36:56.892Z,4.47
2018-02-01T19:39:25.045Z,2.80
2018-02-01T19:41:53.341Z,3.55
2018-02-01T19:44:21.493Z,4.50
2018-02-01T19:46:49.651Z,4.35
2018-02-01T19:49:17.784Z,3.33
2018-02-01T19:51:45.937Z,5.47
2018-02-01T19:54:14.514Z,4.45
2018-02-01T19:56:42.690Z,4.20
2018-02-01T19:59:10.945Z,3.78
2018-02-01T20:01:39.429Z,4.87
2018-02-01T20:04:07.908Z,4.40
2018-02-01T20:06:36.181Z,5.45
2018-02-01T20:09:04.564Z,4.28
2018-02-01T20:11:33.044Z,6.62
2018-02-01T20:14:01.229Z,7.80
2018-02-01T20:16:30.330Z,4.93
2018-02-01T20:18:58.993Z,5.60
2018-02-01T20:21:27.966Z,4.93
2018-02-01T20:23:58.062Z,5.97
2018-02-01T20:26:27.112Z,6.72
2018-02-01T20:28:55.302Z,6.93
2018-02-01T20:31:24.348Z,5.50
2018-02-01T20:33:53.675Z,4.82
2018-02-01T20:36:23.851Z,3.97
2018-02-01T20:38:52.153Z,4.93
2018-02-01T20:41:21.143Z,4.25
2018-02-01T20:43:49.307Z,3.92
2018-02-01T20:46:17.481Z,4.45
2018-02-01T20:48:46.252Z,2.85
2018-02-01T20:51:15.254Z,3.55
2018-02-01T20:53:43.637Z,4.83
2018-02-01T20:56:11.843Z,2.53
2018-02-01T20:58:40.060Z,3.58
2018-02-01T21:01:09.007Z,3.75
2018-02-01T21:03:37.152Z,3.03
2018-02-01T21:06:05.397Z,2.55
2018-02-01T21:08:34.347Z,5.00
2018-02-01T21:11:02.551Z,2.85
2018-02-01T21:13:30.764Z,5.70
2018-02-01T21:15:58.894Z,3.17
2018-02-01T21:18:27.037Z,3.80
2018-02-01T21:20:55.166Z,1.83
2018-02-01T21:23:23.359Z,4.80
2018-02-01T21:25:51.498Z,7.18
2018-02-01T21:28:20.385Z,6.82
2018-02-01T21:30:49.338Z,8.40
2018-02-01T21:33:18.072Z,7.20
2018-02-01T21:35:46.975Z,7.30
2018-02-01T21:38:15.110Z,6.17
2018-02-01T21:40:43.340Z,8.05
2018-02-01T21:43:11.507Z,5.00
2018-02-01T21:45:39.757Z,4.25
2018-02-01T21:48:07.957Z,4.57
2018-02-01T21:50:36.072Z,3.85
2018-02-01T21:53:05.089Z,5.50
2018-02-01T21:55:33.199Z,3.80
2018-02-01T21:58:01.321Z,4.95
2018-02-01T22:00:30.224Z,4.13
2018-02-01T22:02:59.098Z,3.85
2018-02-01T22:05:27.999Z,9.82
2018-02-01T22:07:56.894Z,3.20
2018-02-01T22:10:25.032Z,4.47
2018-02-01T22:12:53.161Z,5.20
2018-02-01T22:15:21.309Z,2.95
2018-02-01T22:17:49.421Z,3.47
2018-02-01T22:20:17.573Z,2.90
2018-02-01T22:22:46.424Z,5.40
2018-02-01T22:25:15.342Z,3.22
2018-02-01T22:27:43.482Z,2.75
2018-02-01T22:30:11.623Z,7.35
2018-02-01T22:36:06.798Z,3.22
2018-02-01T22:38:35.674Z,2.75
2018-02-01T22:41:03.825Z,3.85
2018-02-01T22:43:31.935Z,2.42
2018-02-01T22:46:00.822Z,4.60
2018-02-01T22:48:29.743Z,2.70
2018-02-01T22:50:57.842Z,2.60
2018-02-01T22:53:25.967Z,2.93
2018-02-01T22:55:54.072Z,2.47
2018-02-01T22:58:22.226Z,2.85
2018-02-01T23:00:50.333Z,2.03
2018-02-01T23:03:18.442Z,3.17
2018-02-01T23:05:47.349Z,1.50
2018-02-01T23:08:16.245Z,3.87
2018-02-01T23:10:44.434Z,3.65
2018-02-01T23:13:12.546Z,10.48
2018-02-01T23:15:40.666Z,17.45
2018-02-01T23:18:08.837Z,25.45
2018-02-01T23:20:38.107Z,26.05
2018-02-01T23:23:06.236Z,14.67
2018-02-01T23:25:34.352Z,10.30
2018-02-01T23:28:03.248Z,16.58
2018-02-01T23:30:32.125Z,23.50
2018-02-01T23:33:01.015Z,18.48
2018-02-01T23:35:29.925Z,29.50
2018-02-01T23:37:58.060Z,41.80
2018-02-01T23:40:26.209Z,18.73
2018-02-01T23:42:54.323Z,21.15
2018-02-01T23:45:23.205Z,10.43
2018-02-01T23:47:52.119Z,11.50
2018-02-01T23:50:20.989Z,8.65
2018-02-01T23:52:49.885Z,14.77
2018-02-01T23:55:18.786Z,10.95
2018-02-01T23:57:46.898Z,23.65
